createdAt,value
2017-08-06T00:02:09.740Z,13.80
2017-08-06T00:04:36.689Z,13.80
2017-08-06T00:07:03.660Z,13.80
2017-08-06T00:09:30.604Z,13.80
2017-08-06T00:11:57.558Z,13.80
2017-08-06T00:14:24.497Z,13.80
2017-08-06T00:16:51.505Z,13.80
2017-08-06T00:19:18.451Z,13.80
2017-08-06T00:21:45.438Z,13.80
2017-08-06T00:24:12.630Z,13.90
2017-08-06T00:26:39.592Z,13.80
2017-08-06T00:29:06.526Z,13.80
2017-08-06T00:31:33.485Z,13.80
2017-08-06T00:34:01.427Z,13.80
2017-08-06T00:36:28.385Z,13.90
2017-08-06T00:38:56.171Z,13.90
2017-08-06T00:41:23.149Z,14.00
2017-08-06T00:43:50.876Z,14.10
2017-08-06T00:46:17.837Z,14.00
2017-08-06T00:48:44.772Z,14.00
2017-08-06T00:51:11.715Z,14.10
2017-08-06T00:53:40.035Z,14.20
2017-08-06T00:56:07.760Z,14.10
2017-08-06T00:58:34.706Z,14.10
2017-08-06T01:01:03.576Z,14.00
2017-08-06T01:03:31.524Z,14.00
2017-08-06T01:05:58.484Z,14.00
2017-08-06T01:08:25.410Z,14.00
2017-08-06T01:10:52.344Z,14.00
2017-08-06T01:13:20.966Z,13.90
2017-08-06T01:15:47.901Z,13.90
2017-08-06T01:18:14.851Z,14.00
2017-08-06T01:20:41.795Z,13.90
2017-08-06T01:23:08.738Z,14.00
2017-08-06T01:25:35.667Z,13.90
2017-08-06T01:28:02.614Z,13.80
2017-08-06T01:30:29.545Z,13.60
2017-08-06T01:32:56.495Z,13.60
2017-08-06T01:35:23.411Z,13.20
2017-08-06T01:37:51.178Z,13.00
2017-08-06T01:40:18.890Z,13.00
2017-08-06T01:42:45.849Z,12.90
2017-08-06T01:45:12.793Z,12.90
2017-08-06T01:47:39.765Z,13.00
2017-08-06T01:50:06.720Z,13.00
2017-08-06T01:52:35.301Z,13.00
2017-08-06T01:55:03.809Z,13.00
2017-08-06T01:57:30.753Z,12.90
2017-08-06T01:59:57.690Z,13.00
2017-08-06T02:02:25.595Z,13.00
2017-08-06T02:04:52.544Z,12.90
2017-08-06T02:07:19.533Z,12.90
2017-08-06T02:09:47.228Z,12.90
2017-08-06T02:12:14.166Z,12.80
2017-08-06T02:14:41.133Z,12.70
2017-08-06T02:17:09.085Z,12.70
2017-08-06T02:19:36.047Z,12.60
2017-08-06T02:22:02.977Z,12.70
2017-08-06T02:24:30.030Z,12.80
2017-08-06T02:26:56.968Z,12.70
2017-08-06T02:29:23.925Z,12.60
2017-08-06T02:31:50.857Z,12.60
2017-08-06T02:34:17.813Z,12.60
2017-08-06T02:36:44.747Z,12.60
2017-08-06T02:39:11.705Z,12.70
2017-08-06T02:41:38.653Z,12.60
2017-08-06T02:44:05.609Z,12.60
2017-08-06T02:46:32.542Z,12.60
2017-08-06T02:48:59.499Z,12.40
2017-08-06T02:51:26.435Z,12.30
2017-08-06T02:53:53.370Z,12.30
2017-08-06T02:56:20.339Z,12.30
2017-08-06T02:58:47.281Z,12.30
2017-08-06T03:01:14.241Z,12.30
2017-08-06T03:03:41.180Z,12.20
2017-08-06T03:06:09.136Z,12.30
2017-08-06T03:08:36.073Z,12.30
2017-08-06T03:11:03.036Z,12.30
2017-08-06T03:13:29.971Z,12.30
2017-08-06T03:15:56.924Z,12.30
2017-08-06T03:18:23.867Z,12.30
2017-08-06T03:20:50.820Z,12.30
2017-08-06T03:23:17.757Z,12.20
2017-08-06T03:25:44.726Z,12.10
2017-08-06T03:28:12.439Z,12.10
2017-08-06T03:30:40.307Z,12.10
2017-08-06T03:33:07.250Z,12.00
2017-08-06T03:35:34.205Z,12.00
2017-08-06T03:38:01.146Z,12.00
2017-08-06T03:40:28.089Z,12.00
2017-08-06T03:42:55.061Z,12.10
2017-08-06T03:45:22.003Z,12.10
2017-08-06T03:47:48.934Z,12.00
2017-08-06T03:50:15.904Z,11.90
2017-08-06T03:52:43.704Z,11.80
2017-08-06T03:55:10.666Z,11.80
2017-08-06T03:57:39.543Z,11.80
2017-08-06T04:00:06.513Z,11.90
2017-08-06T04:02:33.450Z,11.90
2017-08-06T04:05:00.382Z,11.80
2017-08-06T04:07:27.369Z,11.70
2017-08-06T04:09:54.310Z,11.80
2017-08-06T04:12:21.296Z,11.80
2017-08-06T04:14:49.197Z,11.80
2017-08-06T04:17:16.152Z,11.80
2017-08-06T04:19:44.001Z,11.80
2017-08-06T04:22:10.968Z,11.80
2017-08-06T04:24:37.920Z,11.80
2017-08-06T04:27:06.702Z,11.80
2017-08-06T04:29:35.426Z,11.90
2017-08-06T04:32:03.946Z,11.90
2017-08-06T04:34:30.898Z,11.90
2017-08-06T04:36:57.856Z,12.00
2017-08-06T04:39:24.784Z,12.00
2017-08-06T04:41:52.675Z,12.10
2017-08-06T04:44:19.628Z,12.10
2017-08-06T04:46:46.566Z,12.20
2017-08-06T04:49:14.510Z,12.20
2017-08-06T04:51:41.462Z,12.20
2017-08-06T04:54:08.400Z,12.20
2017-08-06T04:56:36.380Z,12.20
2017-08-06T04:59:03.318Z,12.30
2017-08-06T05:01:30.282Z,12.30
2017-08-06T05:03:57.212Z,12.40
2017-08-06T05:06:24.168Z,12.40
2017-08-06T05:08:51.096Z,12.40
2017-08-06T05:11:18.138Z,12.50
2017-08-06T05:13:45.069Z,12.50
2017-08-06T05:16:12.028Z,12.70
2017-08-06T05:18:38.957Z,12.90
2017-08-06T05:21:05.921Z,13.00
2017-08-06T05:23:32.870Z,13.00
2017-08-06T05:25:59.832Z,13.00
2017-08-06T05:28:26.773Z,12.90
2017-08-06T05:30:54.728Z,13.00
2017-08-06T05:33:21.656Z,13.00
2017-08-06T05:35:50.562Z,13.10
2017-08-06T05:38:17.505Z,13.20
2017-08-06T05:40:44.474Z,13.30
2017-08-06T05:43:12.210Z,13.30
2017-08-06T05:45:39.158Z,13.40
2017-08-06T05:48:06.082Z,13.50
2017-08-06T05:50:33.064Z,13.50
2017-08-06T05:53:00.000Z,13.70
2017-08-06T05:55:26.948Z,14.10
2017-08-06T05:57:53.889Z,14.20
2017-08-06T06:00:20.845Z,14.40
2017-08-06T06:02:48.762Z,14.30
2017-08-06T06:05:15.733Z,14.30
2017-08-06T06:07:43.692Z,14.50
2017-08-06T06:10:11.589Z,14.50
2017-08-06T06:12:38.530Z,14.80
2017-08-06T06:15:07.406Z,15.00
2017-08-06T06:17:35.362Z,15.10
2017-08-06T06:20:02.274Z,15.10
2017-08-06T06:22:30.016Z,14.90
2017-08-06T06:24:56.961Z,14.90
2017-08-06T06:27:23.913Z,14.80
2017-08-06T06:29:50.851Z,14.80
2017-08-06T06:32:21.248Z,14.70
2017-08-06T06:34:48.184Z,14.50
2017-08-06T06:37:15.153Z,14.70
2017-08-06T06:39:42.092Z,14.80
2017-08-06T06:42:09.049Z,15.10
2017-08-06T06:44:35.990Z,15.20
2017-08-06T06:47:03.663Z,15.30
2017-08-06T06:49:32.383Z,15.30
2017-08-06T06:52:00.120Z,15.40
2017-08-06T06:54:27.066Z,15.40
2017-08-06T06:56:54.916Z,15.40
2017-08-06T06:59:21.874Z,15.60
2017-08-06T07:01:48.824Z,15.70
2017-08-06T07:04:15.758Z,15.80
2017-08-06T07:06:42.694Z,15.80
2017-08-06T07:09:09.645Z,15.80
2017-08-06T07:11:36.603Z,15.90
2017-08-06T07:14:03.566Z,16.10
2017-08-06T07:16:30.505Z,16.20
2017-08-06T07:18:57.461Z,16.30
2017-08-06T07:21:24.394Z,16.20
2017-08-06T07:23:51.360Z,16.40
2017-08-06T07:26:18.284Z,16.50
2017-08-06T07:28:45.249Z,16.40
2017-08-06T07:31:13.101Z,16.40
2017-08-06T07:33:40.057Z,16.70
2017-08-06T07:36:07.617Z,16.60
2017-08-06T07:38:34.573Z,16.70
2017-08-06T07:41:02.276Z,16.80
2017-08-06T07:43:29.225Z,16.80
2017-08-06T07:45:56.171Z,16.90
2017-08-06T07:48:23.133Z,16.90
2017-08-06T07:50:50.999Z,17.00
2017-08-06T07:53:17.948Z,17.30
2017-08-06T07:55:45.688Z,17.10
2017-08-06T07:58:12.674Z,17.30
2017-08-06T08:00:39.641Z,17.60
2017-08-06T08:03:06.611Z,18.00
2017-08-06T08:05:34.506Z,18.20
2017-08-06T08:10:39.686Z,18.60
2017-08-06T08:13:06.634Z,18.80
2017-08-06T08:15:33.602Z,18.10
2017-08-06T08:18:00.542Z,17.50
2017-08-06T08:20:27.532Z,16.80
2017-08-06T08:22:54.464Z,16.60
2017-08-06T08:25:24.221Z,16.10
2017-08-06T08:27:51.206Z,16.10
2017-08-06T08:30:18.148Z,16.10
2017-08-06T08:32:45.854Z,15.80
2017-08-06T08:35:12.818Z,15.80
2017-08-06T08:37:39.760Z,16.00
2017-08-06T08:40:06.700Z,16.20
2017-08-06T08:42:33.643Z,16.60
2017-08-06T08:45:00.601Z,16.70
2017-08-06T08:47:27.547Z,16.50
2017-08-06T08:49:54.505Z,16.20
2017-08-06T08:52:21.441Z,16.30
2017-08-06T08:54:48.393Z,16.50
2017-08-06T08:57:15.341Z,17.00
2017-08-06T08:59:42.311Z,17.30
2017-08-06T09:02:09.257Z,17.30
2017-08-06T09:04:36.968Z,18.60
2017-08-06T09:07:03.921Z,18.60
2017-08-06T09:09:30.887Z,18.20
2017-08-06T09:11:58.661Z,18.80
2017-08-06T09:14:25.598Z,19.00
2017-08-06T09:16:52.523Z,19.20
2017-08-06T09:19:21.446Z,19.10
2017-08-06T09:21:49.371Z,18.80
2017-08-06T09:24:17.329Z,17.70
2017-08-06T09:26:44.278Z,17.30
2017-08-06T09:29:11.226Z,17.20
2017-08-06T09:31:38.208Z,17.00
2017-08-06T09:34:05.165Z,16.80
2017-08-06T09:36:32.879Z,18.10
2017-08-06T09:38:59.824Z,18.10
2017-08-06T09:41:27.698Z,17.90
2017-08-06T09:43:54.619Z,17.90
2017-08-06T09:46:22.506Z,17.50
2017-08-06T09:48:49.492Z,17.00
2017-08-06T09:51:18.162Z,16.50
2017-08-06T09:53:45.133Z,16.50
2017-08-06T09:56:12.075Z,16.60
2017-08-06T09:58:39.769Z,17.80
2017-08-06T10:01:06.736Z,17.80
2017-08-06T10:03:33.697Z,18.40
2017-08-06T10:06:00.669Z,19.10
2017-08-06T10:08:28.398Z,17.80
2017-08-06T10:10:56.304Z,17.70
2017-08-06T10:13:24.005Z,15.20
2017-08-06T10:15:50.957Z,15.20
2017-08-06T10:18:17.880Z,15.10
2017-08-06T10:20:44.818Z,15.20
2017-08-06T10:23:11.757Z,15.30
2017-08-06T10:25:38.720Z,15.60
2017-08-06T10:28:05.677Z,15.70
2017-08-06T10:30:32.619Z,15.80
2017-08-06T10:32:59.592Z,16.20
2017-08-06T10:35:26.593Z,16.70
2017-08-06T10:37:53.545Z,16.90
2017-08-06T10:40:20.475Z,17.40
2017-08-06T10:42:47.429Z,18.10
2017-08-06T10:45:14.373Z,18.60
2017-08-06T10:47:41.320Z,18.80
2017-08-06T10:50:08.245Z,19.10
2017-08-06T10:52:35.962Z,19.90
2017-08-06T10:55:02.889Z,19.90
2017-08-06T10:57:29.865Z,18.90
2017-08-06T10:59:56.794Z,18.50
2017-08-06T11:02:23.749Z,18.40
2017-08-06T11:04:50.688Z,18.20
2017-08-06T11:07:17.643Z,18.40
2017-08-06T11:09:44.600Z,18.50
2017-08-06T11:12:11.551Z,18.40
2017-08-06T11:14:39.255Z,18.80
2017-08-06T11:17:06.307Z,18.70
2017-08-06T11:19:33.244Z,18.80
2017-08-06T11:22:00.201Z,19.00
2017-08-06T11:24:27.125Z,19.30
2017-08-06T11:26:54.084Z,19.70
2017-08-06T11:29:21.013Z,19.80
2017-08-06T11:31:47.968Z,19.40
2017-08-06T11:34:15.025Z,19.10
2017-08-06T11:36:41.964Z,18.60
2017-08-06T11:39:08.900Z,18.20
2017-08-06T11:41:35.865Z,18.30
2017-08-06T11:44:02.788Z,18.30
2017-08-06T11:46:29.746Z,18.30
2017-08-06T11:48:56.679Z,18.10
2017-08-06T11:51:23.640Z,18.10
2017-08-06T11:53:50.609Z,18.10
2017-08-06T11:56:17.566Z,18.60
2017-08-06T11:58:44.493Z,18.70
2017-08-06T12:01:11.469Z,18.80
2017-08-06T12:03:38.405Z,18.80
2017-08-06T12:06:05.381Z,18.80
2017-08-06T12:08:33.104Z,20.00
2017-08-06T12:11:00.029Z,20.00
2017-08-06T12:13:26.994Z,20.40
2017-08-06T12:15:53.928Z,20.80
2017-08-06T12:18:20.885Z,20.70
2017-08-06T12:20:47.907Z,19.60
2017-08-06T12:23:14.881Z,19.30
2017-08-06T12:25:41.831Z,19.10
2017-08-06T12:28:08.785Z,18.60
2017-08-06T12:30:35.788Z,18.60
2017-08-06T12:33:02.737Z,18.90
2017-08-06T12:35:29.674Z,18.70
2017-08-06T12:37:57.386Z,19.10
2017-08-06T12:40:24.316Z,19.10
2017-08-06T12:42:51.266Z,19.40
2017-08-06T12:45:18.201Z,19.50
2017-08-06T12:47:45.175Z,19.40
2017-08-06T12:50:12.133Z,19.60
2017-08-06T12:52:39.891Z,20.10
2017-08-06T12:55:06.828Z,20.40
2017-08-06T12:57:33.784Z,20.40
2017-08-06T13:00:00.713Z,20.20
2017-08-06T13:02:27.682Z,19.70
2017-08-06T13:04:54.648Z,19.50
2017-08-06T13:07:21.621Z,19.50
2017-08-06T13:09:48.584Z,20.00
2017-08-06T13:12:15.562Z,20.10
2017-08-06T13:14:43.278Z,20.80
2017-08-06T13:17:10.252Z,20.70
2017-08-06T13:19:37.202Z,20.40
2017-08-06T13:22:04.158Z,20.30
2017-08-06T13:24:31.106Z,20.40
2017-08-06T13:26:58.846Z,19.80
2017-08-06T13:29:26.609Z,19.80
2017-08-06T13:31:53.590Z,19.30
2017-08-06T13:34:21.292Z,20.60
2017-08-06T13:36:48.257Z,20.60
2017-08-06T13:39:15.214Z,22.00
2017-08-06T13:41:42.164Z,22.20
2017-08-06T13:44:09.149Z,23.00
2017-08-06T13:46:36.338Z,24.00
2017-08-06T13:49:03.296Z,23.30
2017-08-06T13:51:30.279Z,22.90
2017-08-06T13:53:57.968Z,20.80
2017-08-06T13:56:24.921Z,20.80
2017-08-06T13:58:52.564Z,23.90
2017-08-06T14:01:19.532Z,26.60
2017-08-06T14:03:46.493Z,27.50
2017-08-06T14:06:13.425Z,22.10
2017-08-06T14:08:40.373Z,21.90
2017-08-06T14:11:07.313Z,22.50
2017-08-06T14:13:34.260Z,21.30
2017-08-06T14:16:01.192Z,20.30
2017-08-06T14:18:28.151Z,23.80
2017-08-06T14:20:55.182Z,22.70
2017-08-06T14:23:22.228Z,22.30
2017-08-06T14:25:49.152Z,23.00
2017-08-06T14:28:16.265Z,24.80
2017-08-06T14:30:43.208Z,22.70
2017-08-06T14:33:10.149Z,23.80
2017-08-06T14:35:37.103Z,23.70
2017-08-06T14:38:04.813Z,23.00
2017-08-06T14:40:31.775Z,23.00
2017-08-06T14:42:59.636Z,22.90
2017-08-06T14:45:26.590Z,22.60
2017-08-06T14:47:53.533Z,23.50
2017-08-06T14:50:20.467Z,25.40
2017-08-06T14:52:47.425Z,24.90
2017-08-06T14:55:14.372Z,25.90
2017-08-06T14:57:43.302Z,25.00
2017-08-06T15:00:10.251Z,25.00
2017-08-06T15:02:37.196Z,23.80
2017-08-06T15:05:04.898Z,23.90
2017-08-06T15:07:31.856Z,23.90
2017-08-06T15:09:58.796Z,25.10
2017-08-06T15:12:25.797Z,27.50
2017-08-06T15:14:53.488Z,25.10
2017-08-06T15:17:20.472Z,25.10
2017-08-06T15:19:47.409Z,23.20
2017-08-06T15:22:14.340Z,23.70
2017-08-06T15:24:41.292Z,24.90
2017-08-06T15:27:08.222Z,24.60
2017-08-06T15:29:35.160Z,24.20
2017-08-06T15:32:02.081Z,23.60
2017-08-06T15:34:29.033Z,25.20
2017-08-06T15:36:55.994Z,26.30
2017-08-06T15:39:22.953Z,25.40
2017-08-06T15:41:49.905Z,25.40
2017-08-06T15:44:16.883Z,25.00
2017-08-06T15:46:43.878Z,24.40
2017-08-06T15:49:10.853Z,23.30
2017-08-06T15:51:37.817Z,22.70
2017-08-06T15:54:04.755Z,22.50
2017-08-06T15:56:31.701Z,21.10
2017-08-06T15:58:58.631Z,20.80
2017-08-06T16:01:25.596Z,22.20
2017-08-06T16:03:52.528Z,23.30
2017-08-06T16:06:19.556Z,24.50
2017-08-06T16:08:46.488Z,24.60
2017-08-06T16:11:13.436Z,25.30
2017-08-06T16:13:40.393Z,26.00
2017-08-06T16:16:07.341Z,26.70
2017-08-06T16:18:34.321Z,26.60
2017-08-06T16:21:02.128Z,23.80
2017-08-06T16:23:29.083Z,23.60
2017-08-06T16:25:56.030Z,24.60
2017-08-06T16:28:22.983Z,25.00
2017-08-06T16:30:49.932Z,23.90
2017-08-06T16:33:20.789Z,23.90
2017-08-06T16:35:48.509Z,25.70
2017-08-06T16:38:15.477Z,25.60
2017-08-06T16:40:42.415Z,23.90
2017-08-06T16:43:09.422Z,23.20
2017-08-06T16:45:36.378Z,22.50
2017-08-06T16:48:04.302Z,23.10
2017-08-06T16:50:31.255Z,22.30
2017-08-06T16:52:58.232Z,20.90
2017-08-06T16:55:28.137Z,20.00
2017-08-06T16:57:55.106Z,20.30
2017-08-06T17:00:24.081Z,22.00
2017-08-06T17:02:51.025Z,22.30
2017-08-06T17:05:17.994Z,21.40
2017-08-06T17:07:44.937Z,20.50
2017-08-06T17:10:11.875Z,19.50
2017-08-06T17:12:38.814Z,19.80
2017-08-06T17:15:06.570Z,19.50
2017-08-06T17:17:34.282Z,19.40
2017-08-06T17:20:01.255Z,19.40
2017-08-06T17:22:28.185Z,19.10
2017-08-06T17:24:56.157Z,18.80
2017-08-06T17:27:24.119Z,18.70
2017-08-06T17:29:51.076Z,18.60
2017-08-06T17:32:18.056Z,18.50
2017-08-06T17:34:45.818Z,18.30
2017-08-06T17:37:12.816Z,18.30
2017-08-06T17:39:40.807Z,18.30
2017-08-06T17:42:07.748Z,18.20
2017-08-06T17:44:34.726Z,18.10
2017-08-06T17:47:01.681Z,18.00
2017-08-06T17:49:28.655Z,18.10
2017-08-06T17:51:55.617Z,18.10
2017-08-06T17:54:22.575Z,17.80
2017-08-06T17:56:49.508Z,17.70
2017-08-06T17:59:16.467Z,17.60
2017-08-06T18:01:44.390Z,17.60
2017-08-06T18:04:11.335Z,17.50
2017-08-06T18:06:39.227Z,17.50
2017-08-06T18:09:10.249Z,17.50
2017-08-06T18:11:37.217Z,17.40
2017-08-06T18:14:04.191Z,17.40
2017-08-06T18:16:32.166Z,17.40
2017-08-06T18:18:59.110Z,17.30
2017-08-06T18:21:26.854Z,17.10
2017-08-06T18:23:53.814Z,17.10
2017-08-06T18:26:21.560Z,17.00
2017-08-06T18:28:49.434Z,17.00
2017-08-06T18:31:16.398Z,16.90
2017-08-06T18:33:44.128Z,16.80
2017-08-06T18:36:11.073Z,16.80
2017-08-06T18:38:38.054Z,16.70
2017-08-06T18:41:05.880Z,16.50
2017-08-06T18:43:33.839Z,16.50
2017-08-06T18:46:00.781Z,16.50
2017-08-06T18:48:27.745Z,16.50
2017-08-06T18:51:05.837Z,16.40
2017-08-06T18:53:32.832Z,16.40
2017-08-06T18:56:00.555Z,16.20
2017-08-06T18:58:33.440Z,16.20
2017-08-06T19:01:00.396Z,16.10
2017-08-06T19:03:27.356Z,16.10
2017-08-06T19:05:54.298Z,16.10
2017-08-06T19:08:21.239Z,16.10
2017-08-06T19:10:48.171Z,16.00
2017-08-06T19:13:15.129Z,15.90
2017-08-06T19:15:42.080Z,15.90
2017-08-06T19:18:09.045Z,15.90
2017-08-06T19:20:37.985Z,15.80
2017-08-06T19:23:04.963Z,15.70
2017-08-06T19:25:31.916Z,15.60
2017-08-06T19:28:01.616Z,15.60
2017-08-06T19:30:28.553Z,15.60
2017-08-06T19:32:55.512Z,15.50
2017-08-06T19:35:22.463Z,15.40
2017-08-06T19:37:49.430Z,15.40
2017-08-06T19:40:16.386Z,15.30
2017-08-06T19:42:43.356Z,15.20
2017-08-06T19:45:14.426Z,15.20
2017-08-06T19:47:42.320Z,15.20
2017-08-06T19:50:09.631Z,15.10
2017-08-06T19:52:36.613Z,15.10
2017-08-06T19:55:03.547Z,15.10
2017-08-06T19:57:30.514Z,15.10
2017-08-06T19:59:57.448Z,15.00
2017-08-06T20:02:29.071Z,15.00
2017-08-06T20:05:00.099Z,14.90
2017-08-06T20:07:27.052Z,14.90
2017-08-06T20:09:53.993Z,14.80
2017-08-06T20:12:24.384Z,14.70
2017-08-06T20:14:54.749Z,14.70
2017-08-06T20:17:21.728Z,14.70
2017-08-06T20:19:48.693Z,14.70
2017-08-06T20:22:15.640Z,14.80
2017-08-06T20:24:44.409Z,14.40
2017-08-06T20:27:11.352Z,14.40
2017-08-06T20:29:38.309Z,14.50
2017-08-06T20:32:06.208Z,14.60
2017-08-06T20:34:33.209Z,14.60
2017-08-06T20:37:00.153Z,14.40
2017-08-06T20:39:27.119Z,14.40
2017-08-06T20:41:54.077Z,14.20
2017-08-06T20:44:21.037Z,14.30
2017-08-06T20:46:47.993Z,14.20
2017-08-06T20:49:14.984Z,14.30
2017-08-06T20:51:42.300Z,14.10
2017-08-06T20:54:09.266Z,14.10
2017-08-06T20:56:36.200Z,14.00
2017-08-06T20:59:03.152Z,14.00
2017-08-06T21:01:30.100Z,14.00
2017-08-06T21:03:57.060Z,14.00
2017-08-06T21:06:24.005Z,14.00
2017-08-06T21:08:50.952Z,13.90
2017-08-06T21:11:19.645Z,13.90
2017-08-06T21:13:47.378Z,13.80
2017-08-06T21:16:14.346Z,13.70
2017-08-06T21:18:42.053Z,13.80
2017-08-06T21:23:46.386Z,13.90
2017-08-06T21:26:18.838Z,13.80
2017-08-06T21:28:47.745Z,13.80
2017-08-06T21:31:15.485Z,13.70
2017-08-06T21:33:44.154Z,13.70
2017-08-06T21:36:15.193Z,13.80
2017-08-06T21:38:43.971Z,13.80
2017-08-06T21:41:13.719Z,13.70
2017-08-06T21:43:40.697Z,13.80
2017-08-06T21:46:07.693Z,13.80
2017-08-06T21:48:34.649Z,14.00
2017-08-06T21:51:06.070Z,13.80
2017-08-06T21:53:39.518Z,13.70
2017-08-06T21:56:06.914Z,13.80
2017-08-06T21:58:37.601Z,13.60
2017-08-06T22:01:05.515Z,13.60
2017-08-06T22:03:36.033Z,13.60
2017-08-06T22:06:04.056Z,13.70
2017-08-06T22:08:34.639Z,13.60
2017-08-06T22:11:01.731Z,13.60
2017-08-06T22:13:28.675Z,13.70
2017-08-06T22:15:55.764Z,13.80
2017-08-06T22:18:25.435Z,13.80
2017-08-06T22:20:52.372Z,13.80
2017-08-06T22:23:19.325Z,13.60
2017-08-06T22:25:47.330Z,13.50
2017-08-06T22:28:14.291Z,13.50
2017-08-06T22:30:41.996Z,13.40
2017-08-06T22:33:08.954Z,13.40
2017-08-06T22:35:36.087Z,13.30
2017-08-06T22:38:03.031Z,13.10
2017-08-06T22:40:29.964Z,13.00
2017-08-06T22:42:57.839Z,13.10
2017-08-06T22:45:24.826Z,13.30
2017-08-06T22:47:51.773Z,13.30
2017-08-06T22:50:18.721Z,13.10
2017-08-06T22:52:45.716Z,13.10
2017-08-06T22:55:13.611Z,13.00
2017-08-06T22:57:42.545Z,12.90
2017-08-06T23:00:10.274Z,13.00
2017-08-06T23:02:37.263Z,12.90
2017-08-06T23:05:05.152Z,12.90
2017-08-06T23:07:32.085Z,12.90
2017-08-06T23:10:00.837Z,12.80
2017-08-06T23:12:28.569Z,12.90
2017-08-06T23:14:55.514Z,12.80
2017-08-06T23:17:24.389Z,12.80
2017-08-06T23:19:51.361Z,12.80
2017-08-06T23:22:18.322Z,12.90
2017-08-06T23:24:45.312Z,12.80
2017-08-06T23:27:15.522Z,12.70
2017-08-06T23:29:44.485Z,12.60
2017-08-06T23:32:11.467Z,12.70
2017-08-06T23:34:40.389Z,12.60
2017-08-06T23:37:07.338Z,12.50
2017-08-06T23:39:35.322Z,12.60
2017-08-06T23:42:02.268Z,12.70
2017-08-06T23:44:33.907Z,12.80
2017-08-06T23:47:01.907Z,12.80
2017-08-06T23:49:28.886Z,12.70
2017-08-06T23:51:56.765Z,12.60
2017-08-06T23:54:23.722Z,13.00
2017-08-06T23:56:50.685Z,12.90
2017-08-06T23:59:17.628Z,12.80
